DAL410 KBWI-KCLE
Flight info
| Callsign | DAL410 |
|---|---|
| Flight time | N/A |
| Altitude | 32000 |
| Route | LINSE2 JERES J211 JST UPPRR TRYBE4 |
| Aircraft | B738/M-SDE2E3FGHIRWXY/LB1 |
Departure
| Time | 2026-04-30 22:49 |
|---|---|
| Airport | Baltimore/Washington International Thurgood Marshall Airport (KBWI) |
Arrival
| Time | N/A |
|---|---|
| Airport | Cleveland Hopkins International Airport (KCLE) |
| Time | Latitude | Longitude | Altitude | Speed | Heading |
|---|---|---|---|---|---|
| 2026-04-30 22:27 | 39.18128 | -76.66460 | 155 ft | 0 kts | 180° |
| 2026-04-30 22:41 | 39.18188 | -76.66471 | 155 ft | 3 kts | 136° |
| 2026-04-30 22:41 | 39.18188 | -76.66498 | 155 ft | 2 kts | 62° |
| 2026-04-30 22:42 | 39.18187 | -76.66501 | 155 ft | 0 kts | 60° |
| 2026-04-30 22:43 | 39.18187 | -76.66500 | 155 ft | 1 kts | 60° |
| 2026-04-30 22:43 | 39.18201 | -76.66476 | 155 ft | 2 kts | 55° |
| 2026-04-30 22:44 | 39.18227 | -76.66428 | 155 ft | 8 kts | 54° |
| 2026-04-30 22:45 | 39.18171 | -76.66161 | 150 ft | 12 kts | 144° |
| 2026-04-30 22:45 | 39.18034 | -76.66043 | 150 ft | 12 kts | 148° |
| 2026-04-30 22:46 | 39.17823 | -76.65874 | 135 ft | 29 kts | 148° |
| 2026-04-30 22:47 | 39.17351 | -76.65520 | 140 ft | 17 kts | 185° |
| 2026-04-30 22:47 | 39.17301 | -76.65918 | 144 ft | 72 kts | 274° |
| 2026-04-30 22:48 | 39.17461 | -76.68385 | 375 ft | 187 kts | 275° |
| 2026-04-30 22:49 | 39.17840 | -76.74272 | 2157 ft | 241 kts | 270° |
| 2026-04-30 22:49 | 39.18265 | -76.80760 | 4360 ft | 252 kts | 272° |
| 2026-04-30 22:50 | 39.19036 | -76.89756 | 7680 ft | 255 kts | 273° |
| 2026-04-30 22:51 | 39.19425 | -76.94339 | 9310 ft | 258 kts | 274° |
| 2026-04-30 22:51 | 39.19889 | -76.99003 | 10474 ft | 276 kts | 278° |
| 2026-04-30 22:52 | 39.20281 | -77.01491 | 10643 ft | 298 kts | 279° |
| 2026-04-30 22:52 | 39.21189 | -77.07127 | 10969 ft | 339 kts | 279° |
| 2026-04-30 22:53 | 39.22419 | -77.13123 | 11950 ft | 357 kts | 294° |
| 2026-04-30 22:53 | 39.25755 | -77.17966 | 13310 ft | 369 kts | 315° |
| 2026-04-30 22:53 | 39.27738 | -77.20099 | 13903 ft | 373 kts | 316° |
| 2026-04-30 22:54 | 39.31754 | -77.24425 | 15001 ft | 379 kts | 315° |
| 2026-04-30 22:55 | 39.38010 | -77.30894 | 16547 ft | 398 kts | 329° |
| 2026-04-30 22:55 | 39.43137 | -77.33675 | 17564 ft | 405 kts | 332° |
| 2026-04-30 22:56 | 39.48390 | -77.36563 | 18444 ft | 413 kts | 331° |
| 2026-04-30 22:56 | 39.56370 | -77.41037 | 19795 ft | 420 kts | 331° |
| 2026-04-30 22:57 | 39.61748 | -77.44157 | 20676 ft | 422 kts | 324° |
| 2026-04-30 22:57 | 39.65618 | -77.49567 | 21414 ft | 410 kts | 293° |
| 2026-04-30 22:58 | 39.67763 | -77.56428 | 22205 ft | 412 kts | 288° |
| 2026-04-30 22:59 | 39.70857 | -77.66908 | 23338 ft | 419 kts | 288° |
| 2026-04-30 22:59 | 39.74082 | -77.77576 | 24317 ft | 425 kts | 289° |